Aérodrome :
LOGIN :

S'inscrire | Disclaimer

   EN    FR    IT 

 










Légende :    VFR   VFR Marginal   IFR   IFR Intensif   IFR Très Intensif
Visi : 
Plafond : 
>= 8 km
>= 3000ft
5 à 8 km
1000 à 3000 ft
1500m à 5 km
500 à 1000 ft
800 à 1500m
200 à 500 ft
< 800m
< 200 ft
Symboles :   Orages  Brouillard  Fortes neiges  Fortes précipitations  Vent > 20 kt
SIGMETs :   Divers  Orages  Givrage  Turbulence  Onde Orograph.  Cendres Volcan.







- Altitude de l'aérodrome : 289 ft


LIRG - Guidonia

DERNIER METAR :
  • 141155Z 17006KT 9999 FEW025 BKN030 12/09 Q1016 RMK OVC MON NE CIME INC NC VIS MIN 9999 BLU

METARs EXPIRÉS :
  • 141055Z 17004KT 9999 SCT025 BKN030 11/08 Q1016 RMK OVC MON NE CIME INC NC VIS MIN 9999 BLU
  • 140955Z 13004KT 9999 SCT025 BKN030 11/08 Q1017

TAF TAF LIRG
Valide du 14 à 12h jusqu'au 14 à 21h UTC


141100Z 1412/1421 17007KT 9999 SCT020 BKN030
TEMPO 1412/1421 5000 RA BR BKN015
PROB40
TEMPO 1412/1415 3000 SHRA BKN010
Pas de NOTAMs connus pour ce terrain.
2 SIGMETs publiés pour la FIR Roma (LIRR) :
 
Turbulence forte
LIRR SIGMET 6 VALID 141200/141400 LIIB
LIRR ROMA FIR SEV TURB FCST WI N4114 E01416 - N4038 E01521 - N4107 E01507 - N4130 E01416 - N4255 E01301 - N4328 E01312 - N4334 E01151 - N4114 E01416 FL020/100 STNR NC=
Givrage fort
LIRR SIGMET 5 VALID 141133/141330 LIIB
LIRR ROMA FIR SEV ICE OBS WI N4305 E01053 - N4310 E01209 - N4218 E01239 - N4210 E01121 - N4305 E01053 ABV FL110 STNR NC=



MET'MAP, la Météo Aéronautique d'un coup d'oeil ! - Copyright ORBIFLY Décembre 2007 - Disclaimer

ORBIFLY MET'MAP TEAM :

Programmation & Développement : Alexandra Zaïnal
Conception & Développement : Baudouin d'Aumeries
Co-Programmation & Développement : Marc-Olivier Méhu
Soutien technique & logistique : Manuel Goepfert

Contact : metmap@orbifly.com




SOURCES & CREDITS :

   NOAA